sensor_id;sensor_type;location;lat;lon;timestamp;P1;durP1;ratioP1;P2;durP2;ratioP2
2992;SDS011;1506;48.932;9.478;2022-09-13T00:01:30;3.70;;;3.50;;
2992;SDS011;1506;48.932;9.478;2022-09-13T00:03:57;2.77;;;2.57;;
2992;SDS011;1506;48.932;9.478;2022-09-13T00:06:24;5.13;;;3.77;;
2992;SDS011;1506;48.932;9.478;2022-09-13T00:08:51;3.20;;;3.00;;
2992;SDS011;1506;48.932;9.478;2022-09-13T00:11:20;5.00;;;4.00;;
2992;SDS011;1506;48.932;9.478;2022-09-13T00:13:51;3.97;;;3.67;;
2992;SDS011;1506;48.932;9.478;2022-09-13T00:16:19;3.70;;;3.50;;
2992;SDS011;1506;48.932;9.478;2022-09-13T00:18:48;2.97;;;2.77;;
2992;SDS011;1506;48.932;9.478;2022-09-13T00:21:17;3.60;;;3.50;;
2992;SDS011;1506;48.932;9.478;2022-09-13T00:23:46;2.93;;;2.70;;
2992;SDS011;1506;48.932;9.478;2022-09-13T00:26:17;3.57;;;3.33;;
2992;SDS011;1506;48.932;9.478;2022-09-13T00:28:49;6.83;;;3.40;;
2992;SDS011;1506;48.932;9.478;2022-09-13T00:31:20;3.13;;;2.93;;
2992;SDS011;1506;48.932;9.478;2022-09-13T00:33:49;3.30;;;3.00;;
2992;SDS011;1506;48.932;9.478;2022-09-13T00:36:17;4.80;;;4.50;;
2992;SDS011;1506;48.932;9.478;2022-09-13T00:38:44;4.10;;;3.80;;
2992;SDS011;1506;48.932;9.478;2022-09-13T00:41:15;3.70;;;3.50;;
2992;SDS011;1506;48.932;9.478;2022-09-13T00:46:32;3.80;;;3.50;;
2992;SDS011;1506;48.932;9.478;2022-09-13T00:49:13;3.60;;;3.40;;
2992;SDS011;1506;48.932;9.478;2022-09-13T00:51:46;3.30;;;3.00;;
2992;SDS011;1506;48.932;9.478;2022-09-13T00:54:26;3.43;;;3.23;;
2992;SDS011;1506;48.932;9.478;2022-09-13T00:57:01;3.77;;;3.57;;
2992;SDS011;1506;48.932;9.478;2022-09-13T00:59:34;4.17;;;3.93;;
2992;SDS011;1506;48.932;9.478;2022-09-13T01:02:08;5.07;;;3.40;;
2992;SDS011;1506;48.932;9.478;2022-09-13T01:04:36;6.37;;;3.43;;
2992;SDS011;1506;48.932;9.478;2022-09-13T01:07:08;4.20;;;3.97;;
2992;SDS011;1506;48.932;9.478;2022-09-13T01:09:40;3.03;;;2.90;;
2992;SDS011;1506;48.932;9.478;2022-09-13T01:12:24;3.80;;;3.60;;
2992;SDS011;1506;48.932;9.478;2022-09-13T01:15:00;12.93;;;3.73;;
2992;SDS011;1506;48.932;9.478;2022-09-13T01:17:31;4.03;;;3.80;;
2992;SDS011;1506;48.932;9.478;2022-09-13T01:19:59;3.67;;;3.47;;
2992;SDS011;1506;48.932;9.478;2022-09-13T01:39:04;4.63;;;3.53;;
2992;SDS011;1506;48.932;9.478;2022-09-13T01:47:43;4.87;;;4.40;;
2992;SDS011;1506;48.932;9.478;2022-09-13T01:56:32;3.40;;;3.30;;
2992;SDS011;1506;48.932;9.478;2022-09-13T02:02:07;4.17;;;3.97;;
2992;SDS011;1506;48.932;9.478;2022-09-13T02:04:53;3.80;;;3.60;;
2992;SDS011;1506;48.932;9.478;2022-09-13T02:07:36;4.10;;;3.90;;
2992;SDS011;1506;48.932;9.478;2022-09-13T02:10:16;4.67;;;4.37;;
2992;SDS011;1506;48.932;9.478;2022-09-13T02:12:52;3.13;;;3.00;;
2992;SDS011;1506;48.932;9.478;2022-09-13T02:15:26;4.13;;;3.90;;
2992;SDS011;1506;48.932;9.478;2022-09-13T02:18:09;4.60;;;4.30;;
2992;SDS011;1506;48.932;9.478;2022-09-13T02:20:44;3.60;;;3.40;;
2992;SDS011;1506;48.932;9.478;2022-09-13T02:23:16;4.57;;;3.70;;
2992;SDS011;1506;48.932;9.478;2022-09-13T02:26:07;3.77;;;3.57;;
2992;SDS011;1506;48.932;9.478;2022-09-13T02:28:39;3.73;;;3.53;;
2992;SDS011;1506;48.932;9.478;2022-09-13T02:31:13;3.90;;;3.70;;
2992;SDS011;1506;48.932;9.478;2022-09-13T02:33:47;4.20;;;4.00;;
2992;SDS011;1506;48.932;9.478;2022-09-13T02:36:21;3.80;;;3.60;;
2992;SDS011;1506;48.932;9.478;2022-09-13T02:38:54;3.77;;;3.57;;
2992;SDS011;1506;48.932;9.478;2022-09-13T02:44:18;3.47;;;3.27;;
2992;SDS011;1506;48.932;9.478;2022-09-13T02:59:04;4.53;;;4.13;;
2992;SDS011;1506;48.932;9.478;2022-09-13T03:01:44;3.77;;;3.47;;
2992;SDS011;1506;48.932;9.478;2022-09-13T03:04:34;4.27;;;3.90;;
2992;SDS011;1506;48.932;9.478;2022-09-13T03:07:01;3.57;;;3.37;;
2992;SDS011;1506;48.932;9.478;2022-09-13T03:09:32;4.47;;;4.17;;
2992;SDS011;1506;48.932;9.478;2022-09-13T03:24:08;4.03;;;3.73;;
2992;SDS011;1506;48.932;9.478;2022-09-13T03:29:41;4.00;;;3.80;;
2992;SDS011;1506;48.932;9.478;2022-09-13T03:33:11;3.73;;;3.53;;
2992;SDS011;1506;48.932;9.478;2022-09-13T03:35:53;3.67;;;3.40;;
2992;SDS011;1506;48.932;9.478;2022-09-13T03:38:28;3.97;;;3.67;;
2992;SDS011;1506;48.932;9.478;2022-09-13T03:41:10;4.57;;;4.20;;
2992;SDS011;1506;48.932;9.478;2022-09-13T03:43:52;4.37;;;4.00;;
2992;SDS011;1506;48.932;9.478;2022-09-13T03:46:43;4.03;;;3.83;;
2992;SDS011;1506;48.932;9.478;2022-09-13T03:49:15;3.67;;;3.47;;
2992;SDS011;1506;48.932;9.478;2022-09-13T03:51:48;4.30;;;3.93;;
2992;SDS011;1506;48.932;9.478;2022-09-13T03:54:21;3.40;;;3.20;;
2992;SDS011;1506;48.932;9.478;2022-09-13T03:57:11;3.70;;;3.50;;
2992;SDS011;1506;48.932;9.478;2022-09-13T03:59:45;3.57;;;3.37;;
2992;SDS011;1506;48.932;9.478;2022-09-13T04:02:15;4.03;;;3.83;;
2992;SDS011;1506;48.932;9.478;2022-09-13T04:04:43;5.00;;;4.60;;
2992;SDS011;1506;48.932;9.478;2022-09-13T04:07:12;6.33;;;3.80;;
2992;SDS011;1506;48.932;9.478;2022-09-13T04:09:42;4.50;;;4.20;;
2992;SDS011;1506;48.932;9.478;2022-09-13T04:12:09;4.00;;;3.80;;
2992;SDS011;1506;48.932;9.478;2022-09-13T04:14:36;4.50;;;4.13;;
2992;SDS011;1506;48.932;9.478;2022-09-13T04:17:03;3.80;;;3.60;;
2992;SDS011;1506;48.932;9.478;2022-09-13T04:19:30;3.40;;;3.20;;
2992;SDS011;1506;48.932;9.478;2022-09-13T04:21:57;4.10;;;3.87;;
2992;SDS011;1506;48.932;9.478;2022-09-13T04:24:25;4.33;;;4.07;;
2992;SDS011;1506;48.932;9.478;2022-09-13T04:26:53;6.03;;;5.37;;
2992;SDS011;1506;48.932;9.478;2022-09-13T04:29:22;7.13;;;4.83;;
2992;SDS011;1506;48.932;9.478;2022-09-13T04:31:51;4.87;;;4.57;;
2992;SDS011;1506;48.932;9.478;2022-09-13T04:34:19;6.50;;;5.90;;
2992;SDS011;1506;48.932;9.478;2022-09-13T04:36:48;5.10;;;4.70;;
2992;SDS011;1506;48.932;9.478;2022-09-13T04:39:18;9.63;;;4.90;;
2992;SDS011;1506;48.932;9.478;2022-09-13T04:41:46;3.53;;;3.33;;
2992;SDS011;1506;48.932;9.478;2022-09-13T04:44:15;6.23;;;4.50;;
2992;SDS011;1506;48.932;9.478;2022-09-13T04:46:45;10.80;;;3.87;;
2992;SDS011;1506;48.932;9.478;2022-09-13T04:49:14;7.63;;;4.57;;
2992;SDS011;1506;48.932;9.478;2022-09-13T04:51:42;3.53;;;3.33;;
2992;SDS011;1506;48.932;9.478;2022-09-13T04:54:10;5.00;;;3.20;;
2992;SDS011;1506;48.932;9.478;2022-09-13T04:56:41;5.33;;;4.70;;
2992;SDS011;1506;48.932;9.478;2022-09-13T04:59:12;3.90;;;3.70;;
2992;SDS011;1506;48.932;9.478;2022-09-13T05:01:39;4.87;;;4.30;;
2992;SDS011;1506;48.932;9.478;2022-09-13T05:04:07;5.03;;;4.83;;
2992;SDS011;1506;48.932;9.478;2022-09-13T05:06:35;4.77;;;4.30;;
2992;SDS011;1506;48.932;9.478;2022-09-13T05:09:03;4.27;;;4.07;;
2992;SDS011;1506;48.932;9.478;2022-09-13T05:11:30;13.43;;;4.50;;
2992;SDS011;1506;48.932;9.478;2022-09-13T05:13:58;4.93;;;4.07;;
2992;SDS011;1506;48.932;9.478;2022-09-13T05:16:27;4.43;;;4.13;;
2992;SDS011;1506;48.932;9.478;2022-09-13T05:18:58;3.90;;;3.60;;
2992;SDS011;1506;48.932;9.478;2022-09-13T05:21:26;6.27;;;4.13;;
2992;SDS011;1506;48.932;9.478;2022-09-13T05:23:53;4.83;;;4.47;;
2992;SDS011;1506;48.932;9.478;2022-09-13T05:26:23;6.77;;;4.73;;
2992;SDS011;1506;48.932;9.478;2022-09-13T05:28:52;5.30;;;3.80;;
2992;SDS011;1506;48.932;9.478;2022-09-13T05:31:20;5.30;;;4.90;;
2992;SDS011;1506;48.932;9.478;2022-09-13T05:33:57;4.60;;;4.30;;
2992;SDS011;1506;48.932;9.478;2022-09-13T05:36:27;4.30;;;4.10;;
2992;SDS011;1506;48.932;9.478;2022-09-13T05:38:54;5.50;;;4.30;;
2992;SDS011;1506;48.932;9.478;2022-09-13T05:41:43;8.50;;;4.40;;
2992;SDS011;1506;48.932;9.478;2022-09-13T05:44:10;4.20;;;4.00;;
2992;SDS011;1506;48.932;9.478;2022-09-13T05:46:39;3.30;;;3.10;;
2992;SDS011;1506;48.932;9.478;2022-09-13T05:49:08;4.50;;;4.13;;
2992;SDS011;1506;48.932;9.478;2022-09-13T05:51:37;4.00;;;3.70;;
2992;SDS011;1506;48.932;9.478;2022-09-13T05:54:05;12.43;;;4.50;;
2992;SDS011;1506;48.932;9.478;2022-09-13T05:56:31;3.50;;;3.30;;
2992;SDS011;1506;48.932;9.478;2022-09-13T05:58:58;3.97;;;3.77;;
2992;SDS011;1506;48.932;9.478;2022-09-13T06:01:26;8.83;;;3.47;;
2992;SDS011;1506;48.932;9.478;2022-09-13T06:03:55;3.93;;;3.63;;
2992;SDS011;1506;48.932;9.478;2022-09-13T06:06:24;5.27;;;4.87;;
2992;SDS011;1506;48.932;9.478;2022-09-13T06:08:52;6.77;;;5.37;;
2992;SDS011;1506;48.932;9.478;2022-09-13T06:11:23;6.17;;;4.80;;
2992;SDS011;1506;48.932;9.478;2022-09-13T06:13:51;5.00;;;4.60;;
2992;SDS011;1506;48.932;9.478;2022-09-13T06:16:19;5.80;;;4.30;;
2992;SDS011;1506;48.932;9.478;2022-09-13T06:18:47;3.90;;;3.70;;
2992;SDS011;1506;48.932;9.478;2022-09-13T06:21:16;3.63;;;3.43;;
2992;SDS011;1506;48.932;9.478;2022-09-13T06:23:46;4.27;;;3.93;;
2992;SDS011;1506;48.932;9.478;2022-09-13T06:26:19;4.67;;;4.27;;
2992;SDS011;1506;48.932;9.478;2022-09-13T06:28:52;6.43;;;3.20;;
2992;SDS011;1506;48.932;9.478;2022-09-13T06:31:22;4.73;;;3.60;;
2992;SDS011;1506;48.932;9.478;2022-09-13T06:33:59;3.67;;;3.47;;
2992;SDS011;1506;48.932;9.478;2022-09-13T06:36:29;4.93;;;4.00;;
2992;SDS011;1506;48.932;9.478;2022-09-13T06:38:56;3.67;;;3.37;;
2992;SDS011;1506;48.932;9.478;2022-09-13T06:41:25;3.87;;;3.40;;
2992;SDS011;1506;48.932;9.478;2022-09-13T06:43:54;3.90;;;3.60;;
2992;SDS011;1506;48.932;9.478;2022-09-13T06:46:24;3.23;;;3.03;;
2992;SDS011;1506;48.932;9.478;2022-09-13T06:48:55;4.17;;;3.87;;
2992;SDS011;1506;48.932;9.478;2022-09-13T06:51:26;3.50;;;3.20;;
2992;SDS011;1506;48.932;9.478;2022-09-13T06:53:55;3.47;;;3.27;;
2992;SDS011;1506;48.932;9.478;2022-09-13T06:58:56;3.50;;;3.20;;
2992;SDS011;1506;48.932;9.478;2022-09-13T07:04:02;4.23;;;4.03;;
2992;SDS011;1506;48.932;9.478;2022-09-13T07:06:35;4.20;;;3.90;;
2992;SDS011;1506;48.932;9.478;2022-09-13T07:09:06;4.17;;;3.87;;
2992;SDS011;1506;48.932;9.478;2022-09-13T07:11:37;4.03;;;3.77;;
2992;SDS011;1506;48.932;9.478;2022-09-13T07:14:06;3.70;;;3.40;;
2992;SDS011;1506;48.932;9.478;2022-09-13T07:16:35;4.00;;;3.70;;
2992;SDS011;1506;48.932;9.478;2022-09-13T07:19:07;4.07;;;3.87;;
2992;SDS011;1506;48.932;9.478;2022-09-13T07:21:48;3.67;;;3.40;;
2992;SDS011;1506;48.932;9.478;2022-09-13T07:24:16;3.60;;;3.30;;
2992;SDS011;1506;48.932;9.478;2022-09-13T07:26:43;5.07;;;3.30;;
2992;SDS011;1506;48.932;9.478;2022-09-13T07:29:13;4.67;;;2.73;;
2992;SDS011;1506;48.932;9.478;2022-09-13T07:31:42;6.40;;;4.07;;
2992;SDS011;1506;48.932;9.478;2022-09-13T07:34:15;3.40;;;2.60;;
2992;SDS011;1506;48.932;9.478;2022-09-13T07:36:43;3.53;;;2.97;;
2992;SDS011;1506;48.932;9.478;2022-09-13T07:39:12;3.77;;;3.57;;
2992;SDS011;1506;48.932;9.478;2022-09-13T07:41:45;2.87;;;2.77;;
2992;SDS011;1506;48.932;9.478;2022-09-13T07:44:13;3.47;;;3.27;;
2992;SDS011;1506;48.932;9.478;2022-09-13T07:46:40;4.17;;;3.00;;
2992;SDS011;1506;48.932;9.478;2022-09-13T07:49:11;2.60;;;2.50;;
2992;SDS011;1506;48.932;9.478;2022-09-13T07:51:42;2.87;;;2.67;;
2992;SDS011;1506;48.932;9.478;2022-09-13T07:54:11;8.33;;;2.30;;
2992;SDS011;1506;48.932;9.478;2022-09-13T07:56:41;2.23;;;2.13;;
2992;SDS011;1506;48.932;9.478;2022-09-13T07:59:12;2.33;;;2.23;;
2992;SDS011;1506;48.932;9.478;2022-09-13T08:01:41;2.27;;;2.17;;
2992;SDS011;1506;48.932;9.478;2022-09-13T08:04:15;2.13;;;2.00;;
2992;SDS011;1506;48.932;9.478;2022-09-13T08:06:44;2.53;;;2.43;;
2992;SDS011;1506;48.932;9.478;2022-09-13T08:09:12;2.30;;;2.20;;
2992;SDS011;1506;48.932;9.478;2022-09-13T08:11:49;3.20;;;1.90;;
2992;SDS011;1506;48.932;9.478;2022-09-13T08:14:20;11.73;;;2.30;;
2992;SDS011;1506;48.932;9.478;2022-09-13T08:16:48;2.00;;;1.90;;
2992;SDS011;1506;48.932;9.478;2022-09-13T08:19:16;2.60;;;2.07;;
2992;SDS011;1506;48.932;9.478;2022-09-13T08:21:44;2.10;;;2.00;;
2992;SDS011;1506;48.932;9.478;2022-09-13T08:24:19;1.97;;;1.87;;
2992;SDS011;1506;48.932;9.478;2022-09-13T08:26:47;3.47;;;1.73;;
2992;SDS011;1506;48.932;9.478;2022-09-13T08:29:14;2.10;;;2.00;;
2992;SDS011;1506;48.932;9.478;2022-09-13T08:31:42;1.70;;;1.60;;
2992;SDS011;1506;48.932;9.478;2022-09-13T08:34:15;2.63;;;1.70;;
2992;SDS011;1506;48.932;9.478;2022-09-13T08:36:43;1.93;;;1.83;;
2992;SDS011;1506;48.932;9.478;2022-09-13T08:39:11;1.87;;;1.77;;
2992;SDS011;1506;48.932;9.478;2022-09-13T08:49:43;3.63;;;1.80;;
2992;SDS011;1506;48.932;9.478;2022-09-13T09:00:53;2.80;;;1.60;;
2992;SDS011;1506;48.932;9.478;2022-09-13T09:06:13;1.33;;;1.27;;
2992;SDS011;1506;48.932;9.478;2022-09-13T09:08:44;1.50;;;1.40;;
2992;SDS011;1506;48.932;9.478;2022-09-13T09:16:46;1.90;;;1.80;;
2992;SDS011;1506;48.932;9.478;2022-09-13T09:19:42;1.80;;;1.70;;
2992;SDS011;1506;48.932;9.478;2022-09-13T09:22:17;1.60;;;1.50;;
2992;SDS011;1506;48.932;9.478;2022-09-13T09:24:48;1.20;;;1.20;;
2992;SDS011;1506;48.932;9.478;2022-09-13T09:27:20;2.23;;;2.13;;
2992;SDS011;1506;48.932;9.478;2022-09-13T09:29:48;1.70;;;1.60;;
2992;SDS011;1506;48.932;9.478;2022-09-13T09:41:04;1.40;;;1.30;;
2992;SDS011;1506;48.932;9.478;2022-09-13T09:44:02;1.43;;;1.33;;
2992;SDS011;1506;48.932;9.478;2022-09-13T09:46:36;1.60;;;1.50;;
2992;SDS011;1506;48.932;9.478;2022-09-13T09:52:05;1.70;;;1.60;;
2992;SDS011;1506;48.932;9.478;2022-09-13T09:54:36;2.37;;;1.33;;
2992;SDS011;1506;48.932;9.478;2022-09-13T09:57:04;1.20;;;1.20;;
2992;SDS011;1506;48.932;9.478;2022-09-13T09:59:33;1.30;;;1.20;;
2992;SDS011;1506;48.932;9.478;2022-09-13T10:02:01;1.50;;;1.40;;
2992;SDS011;1506;48.932;9.478;2022-09-13T10:04:53;4.03;;;1.37;;
2992;SDS011;1506;48.932;9.478;2022-09-13T10:07:32;1.80;;;1.70;;
2992;SDS011;1506;48.932;9.478;2022-09-13T10:10:02;1.60;;;1.50;;
2992;SDS011;1506;48.932;9.478;2022-09-13T10:12:34;1.63;;;1.53;;
2992;SDS011;1506;48.932;9.478;2022-09-13T10:23:42;1.27;;;1.17;;
2992;SDS011;1506;48.932;9.478;2022-09-13T10:26:13;1.93;;;1.47;;
2992;SDS011;1506;48.932;9.478;2022-09-13T10:28:44;1.97;;;1.23;;
2992;SDS011;1506;48.932;9.478;2022-09-13T10:31:20;1.77;;;1.67;;
2992;SDS011;1506;48.932;9.478;2022-09-13T10:33:57;1.00;;;0.90;;
2992;SDS011;1506;48.932;9.478;2022-09-13T10:36:34;0.80;;;0.80;;
2992;SDS011;1506;48.932;9.478;2022-09-13T10:39:19;0.90;;;0.90;;
2992;SDS011;1506;48.932;9.478;2022-09-13T10:47:24;2.90;;;1.50;;
2992;SDS011;1506;48.932;9.478;2022-09-13T10:50:37;1.03;;;1.00;;
2992;SDS011;1506;48.932;9.478;2022-09-13T10:53:04;1.97;;;1.20;;
2992;SDS011;1506;48.932;9.478;2022-09-13T10:56:04;3.33;;;1.40;;
2992;SDS011;1506;48.932;9.478;2022-09-13T10:58:45;1.27;;;1.17;;
2992;SDS011;1506;48.932;9.478;2022-09-13T11:01:15;1.40;;;1.30;;
2992;SDS011;1506;48.932;9.478;2022-09-13T11:07:50;1.00;;;1.00;;
2992;SDS011;1506;48.932;9.478;2022-09-13T11:13:42;1.00;;;1.00;;
2992;SDS011;1506;48.932;9.478;2022-09-13T11:16:45;1.60;;;1.50;;
2992;SDS011;1506;48.932;9.478;2022-09-13T11:22:26;2.10;;;2.00;;
2992;SDS011;1506;48.932;9.478;2022-09-13T11:40:16;1.90;;;1.80;;
2992;SDS011;1506;48.932;9.478;2022-09-13T11:43:03;3.70;;;1.53;;
2992;SDS011;1506;48.932;9.478;2022-09-13T11:54:16;1.57;;;1.30;;
2992;SDS011;1506;48.932;9.478;2022-09-13T11:57:01;1.53;;;1.43;;
2992;SDS011;1506;48.932;9.478;2022-09-13T11:59:39;1.40;;;1.30;;
2992;SDS011;1506;48.932;9.478;2022-09-13T12:04:48;1.80;;;1.70;;
2992;SDS011;1506;48.932;9.478;2022-09-13T12:10:49;1.10;;;1.10;;
2992;SDS011;1506;48.932;9.478;2022-09-13T12:13:24;1.03;;;1.03;;
2992;SDS011;1506;48.932;9.478;2022-09-13T12:15:59;1.40;;;1.30;;
2992;SDS011;1506;48.932;9.478;2022-09-13T12:21:25;1.43;;;1.33;;
2992;SDS011;1506;48.932;9.478;2022-09-13T12:24:03;1.10;;;1.10;;
2992;SDS011;1506;48.932;9.478;2022-09-13T12:26:48;2.50;;;1.53;;
2992;SDS011;1506;48.932;9.478;2022-09-13T12:29:32;0.97;;;0.97;;
2992;SDS011;1506;48.932;9.478;2022-09-13T12:32:17;2.40;;;1.17;;
2992;SDS011;1506;48.932;9.478;2022-09-13T12:34:47;1.27;;;1.17;;
2992;SDS011;1506;48.932;9.478;2022-09-13T13:03:02;0.90;;;0.90;;
2992;SDS011;1506;48.932;9.478;2022-09-13T13:11:00;3.20;;;1.53;;
2992;SDS011;1506;48.932;9.478;2022-09-13T13:13:45;1.47;;;1.37;;
2992;SDS011;1506;48.932;9.478;2022-09-13T13:16:29;6.40;;;1.90;;
2992;SDS011;1506;48.932;9.478;2022-09-13T13:31:32;1.50;;;1.27;;
2992;SDS011;1506;48.932;9.478;2022-09-13T13:41:59;1.13;;;1.13;;
2992;SDS011;1506;48.932;9.478;2022-09-13T13:44:56;1.13;;;1.03;;
2992;SDS011;1506;48.932;9.478;2022-09-13T13:47:51;1.73;;;1.63;;
2992;SDS011;1506;48.932;9.478;2022-09-13T13:53:49;1.10;;;1.10;;
2992;SDS011;1506;48.932;9.478;2022-09-13T13:56:31;1.23;;;1.13;;
2992;SDS011;1506;48.932;9.478;2022-09-13T13:59:16;1.60;;;1.50;;
2992;SDS011;1506;48.932;9.478;2022-09-13T14:01:52;1.30;;;1.20;;
2992;SDS011;1506;48.932;9.478;2022-09-13T14:09:49;1.17;;;1.17;;
2992;SDS011;1506;48.932;9.478;2022-09-13T14:22:10;0.90;;;0.90;;
2992;SDS011;1506;48.932;9.478;2022-09-13T14:24:53;10.30;;;0.80;;
2992;SDS011;1506;48.932;9.478;2022-09-13T14:27:26;2.30;;;1.17;;
2992;SDS011;1506;48.932;9.478;2022-09-13T14:30:04;1.70;;;1.23;;
2992;SDS011;1506;48.932;9.478;2022-09-13T14:33:00;0.90;;;0.90;;
2992;SDS011;1506;48.932;9.478;2022-09-13T14:40:49;0.80;;;0.70;;
2992;SDS011;1506;48.932;9.478;2022-09-13T14:43:20;0.80;;;0.80;;
2992;SDS011;1506;48.932;9.478;2022-09-13T14:45:51;0.83;;;0.73;;
2992;SDS011;1506;48.932;9.478;2022-09-13T14:48:41;0.80;;;0.80;;
2992;SDS011;1506;48.932;9.478;2022-09-13T14:51:25;1.90;;;0.80;;
2992;SDS011;1506;48.932;9.478;2022-09-13T14:54:20;1.43;;;0.90;;
2992;SDS011;1506;48.932;9.478;2022-09-13T14:56:53;0.80;;;0.80;;
2992;SDS011;1506;48.932;9.478;2022-09-13T14:59:35;0.90;;;0.90;;
2992;SDS011;1506;48.932;9.478;2022-09-13T15:04:49;0.80;;;0.80;;
2992;SDS011;1506;48.932;9.478;2022-09-13T15:07:22;1.20;;;1.10;;
2992;SDS011;1506;48.932;9.478;2022-09-13T15:13:27;1.00;;;1.00;;
2992;SDS011;1506;48.932;9.478;2022-09-13T15:15:39;2.40;;;0.93;;
2992;SDS011;1506;48.932;9.478;2022-09-13T15:20:52;0.80;;;0.80;;
2992;SDS011;1506;48.932;9.478;2022-09-13T15:23:24;0.97;;;0.97;;
2992;SDS011;1506;48.932;9.478;2022-09-13T15:26:07;1.10;;;1.00;;
2992;SDS011;1506;48.932;9.478;2022-09-13T15:37:08;0.87;;;0.70;;
2992;SDS011;1506;48.932;9.478;2022-09-13T15:39:42;1.03;;;0.80;;
2992;SDS011;1506;48.932;9.478;2022-09-13T15:42:30;2.50;;;0.93;;
2992;SDS011;1506;48.932;9.478;2022-09-13T15:44:57;0.87;;;0.87;;
2992;SDS011;1506;48.932;9.478;2022-09-13T15:47:24;0.80;;;0.80;;
2992;SDS011;1506;48.932;9.478;2022-09-13T15:49:51;0.70;;;0.70;;
2992;SDS011;1506;48.932;9.478;2022-09-13T15:52:18;1.13;;;0.80;;
2992;SDS011;1506;48.932;9.478;2022-09-13T15:54:48;0.70;;;0.70;;
2992;SDS011;1506;48.932;9.478;2022-09-13T15:57:25;1.23;;;1.13;;
2992;SDS011;1506;48.932;9.478;2022-09-13T15:59:54;0.70;;;0.70;;
2992;SDS011;1506;48.932;9.478;2022-09-13T16:02:34;0.70;;;0.60;;
2992;SDS011;1506;48.932;9.478;2022-09-13T16:05:01;0.70;;;0.70;;
2992;SDS011;1506;48.932;9.478;2022-09-13T16:07:29;0.87;;;0.87;;
2992;SDS011;1506;48.932;9.478;2022-09-13T16:09:55;0.70;;;0.70;;
2992;SDS011;1506;48.932;9.478;2022-09-13T16:12:22;1.00;;;0.90;;
2992;SDS011;1506;48.932;9.478;2022-09-13T16:14:52;0.97;;;0.80;;
2992;SDS011;1506;48.932;9.478;2022-09-13T16:17:20;0.70;;;0.70;;
2992;SDS011;1506;48.932;9.478;2022-09-13T16:19:50;0.77;;;0.70;;
2992;SDS011;1506;48.932;9.478;2022-09-13T16:22:18;0.80;;;0.80;;
2992;SDS011;1506;48.932;9.478;2022-09-13T16:24:46;0.70;;;0.70;;
2992;SDS011;1506;48.932;9.478;2022-09-13T16:27:13;1.10;;;0.80;;
2992;SDS011;1506;48.932;9.478;2022-09-13T16:29:43;0.70;;;0.67;;
2992;SDS011;1506;48.932;9.478;2022-09-13T16:32:10;0.70;;;0.70;;
2992;SDS011;1506;48.932;9.478;2022-09-13T16:34:37;1.00;;;1.00;;
2992;SDS011;1506;48.932;9.478;2022-09-13T16:37:04;1.20;;;1.13;;
2992;SDS011;1506;48.932;9.478;2022-09-13T16:39:31;0.80;;;0.80;;
2992;SDS011;1506;48.932;9.478;2022-09-13T16:41:58;2.20;;;1.03;;
2992;SDS011;1506;48.932;9.478;2022-09-13T16:44:25;0.90;;;0.90;;
2992;SDS011;1506;48.932;9.478;2022-09-13T16:46:52;8.83;;;1.13;;
2992;SDS011;1506;48.932;9.478;2022-09-13T16:49:19;1.27;;;1.17;;
2992;SDS011;1506;48.932;9.478;2022-09-13T16:51:46;2.43;;;1.10;;
2992;SDS011;1506;48.932;9.478;2022-09-13T16:54:13;1.80;;;1.70;;
2992;SDS011;1506;48.932;9.478;2022-09-13T16:56:40;2.97;;;1.57;;
2992;SDS011;1506;48.932;9.478;2022-09-13T16:59:07;7.93;;;1.70;;
2992;SDS011;1506;48.932;9.478;2022-09-13T17:01:34;2.30;;;1.70;;
2992;SDS011;1506;48.932;9.478;2022-09-13T17:04:02;1.57;;;1.47;;
2992;SDS011;1506;48.932;9.478;2022-09-13T17:06:31;1.53;;;1.43;;
2992;SDS011;1506;48.932;9.478;2022-09-13T17:08:58;1.60;;;1.50;;
2992;SDS011;1506;48.932;9.478;2022-09-13T17:11:28;1.13;;;1.13;;
2992;SDS011;1506;48.932;9.478;2022-09-13T17:13:59;1.30;;;1.00;;
2992;SDS011;1506;48.932;9.478;2022-09-13T17:16:31;0.97;;;0.90;;
2992;SDS011;1506;48.932;9.478;2022-09-13T17:19:03;2.13;;;0.90;;
2992;SDS011;1506;48.932;9.478;2022-09-13T17:21:36;1.13;;;1.03;;
2992;SDS011;1506;48.932;9.478;2022-09-13T17:24:04;0.80;;;0.80;;
2992;SDS011;1506;48.932;9.478;2022-09-13T17:26:38;1.17;;;1.17;;
2992;SDS011;1506;48.932;9.478;2022-09-13T17:29:07;1.30;;;1.20;;
2992;SDS011;1506;48.932;9.478;2022-09-13T17:31:36;2.80;;;1.30;;
2992;SDS011;1506;48.932;9.478;2022-09-13T17:34:03;5.00;;;1.60;;
2992;SDS011;1506;48.932;9.478;2022-09-13T17:36:31;6.03;;;1.20;;
2992;SDS011;1506;48.932;9.478;2022-09-13T17:38:58;23.63;;;2.77;;
2992;SDS011;1506;48.932;9.478;2022-09-13T17:41:25;6.00;;;1.80;;
2992;SDS011;1506;48.932;9.478;2022-09-13T17:43:52;5.50;;;1.97;;
2992;SDS011;1506;48.932;9.478;2022-09-13T17:46:20;1.10;;;1.10;;
2992;SDS011;1506;48.932;9.478;2022-09-13T17:48:51;1.13;;;1.13;;
2992;SDS011;1506;48.932;9.478;2022-09-13T17:51:27;2.80;;;1.37;;
2992;SDS011;1506;48.932;9.478;2022-09-13T17:54:03;2.60;;;1.90;;
2992;SDS011;1506;48.932;9.478;2022-09-13T17:56:35;1.77;;;1.67;;
2992;SDS011;1506;48.932;9.478;2022-09-13T17:59:15;1.93;;;1.73;;
2992;SDS011;1506;48.932;9.478;2022-09-13T18:01:46;2.03;;;1.93;;
2992;SDS011;1506;48.932;9.478;2022-09-13T18:04:17;1.37;;;1.27;;
2992;SDS011;1506;48.932;9.478;2022-09-13T18:06:46;0.90;;;0.90;;
2992;SDS011;1506;48.932;9.478;2022-09-13T18:09:15;1.30;;;1.00;;
2992;SDS011;1506;48.932;9.478;2022-09-13T18:11:42;2.37;;;1.57;;
2992;SDS011;1506;48.932;9.478;2022-09-13T18:14:10;2.60;;;2.40;;
2992;SDS011;1506;48.932;9.478;2022-09-13T18:16:42;1.57;;;1.10;;
2992;SDS011;1506;48.932;9.478;2022-09-13T18:19:10;3.97;;;0.90;;
2992;SDS011;1506;48.932;9.478;2022-09-13T18:21:37;1.30;;;1.20;;
2992;SDS011;1506;48.932;9.478;2022-09-13T18:24:04;1.03;;;1.03;;
2992;SDS011;1506;48.932;9.478;2022-09-13T18:26:32;1.73;;;1.63;;
2992;SDS011;1506;48.932;9.478;2022-09-13T18:29:00;1.43;;;1.33;;
2992;SDS011;1506;48.932;9.478;2022-09-13T18:31:31;1.60;;;1.50;;
2992;SDS011;1506;48.932;9.478;2022-09-13T18:34:01;1.47;;;1.30;;
2992;SDS011;1506;48.932;9.478;2022-09-13T18:36:31;2.87;;;1.50;;
2992;SDS011;1506;48.932;9.478;2022-09-13T18:39:00;1.30;;;1.20;;
2992;SDS011;1506;48.932;9.478;2022-09-13T18:41:34;1.50;;;1.40;;
2992;SDS011;1506;48.932;9.478;2022-09-13T18:44:05;2.20;;;1.70;;
2992;SDS011;1506;48.932;9.478;2022-09-13T18:46:34;2.00;;;1.50;;
2992;SDS011;1506;48.932;9.478;2022-09-13T18:49:03;2.03;;;1.83;;
2992;SDS011;1506;48.932;9.478;2022-09-13T18:54:06;1.33;;;1.30;;
2992;SDS011;1506;48.932;9.478;2022-09-13T18:56:36;1.27;;;1.27;;
2992;SDS011;1506;48.932;9.478;2022-09-13T18:59:04;1.70;;;1.60;;
2992;SDS011;1506;48.932;9.478;2022-09-13T19:01:37;1.27;;;1.17;;
2992;SDS011;1506;48.932;9.478;2022-09-13T19:04:11;2.00;;;1.90;;
2992;SDS011;1506;48.932;9.478;2022-09-13T19:06:44;1.70;;;1.60;;
2992;SDS011;1506;48.932;9.478;2022-09-13T19:09:17;1.60;;;1.50;;
2992;SDS011;1506;48.932;9.478;2022-09-13T19:11:49;1.57;;;1.47;;
2992;SDS011;1506;48.932;9.478;2022-09-13T19:14:19;2.40;;;2.30;;
2992;SDS011;1506;48.932;9.478;2022-09-13T19:16:52;1.87;;;1.53;;
2992;SDS011;1506;48.932;9.478;2022-09-13T19:19:22;3.40;;;1.57;;
2992;SDS011;1506;48.932;9.478;2022-09-13T19:21:49;1.50;;;1.40;;
2992;SDS011;1506;48.932;9.478;2022-09-13T19:24:17;1.60;;;1.50;;
2992;SDS011;1506;48.932;9.478;2022-09-13T19:26:46;7.63;;;1.60;;
2992;SDS011;1506;48.932;9.478;2022-09-13T19:29:17;1.73;;;1.63;;
2992;SDS011;1506;48.932;9.478;2022-09-13T19:31:47;1.77;;;1.67;;
2992;SDS011;1506;48.932;9.478;2022-09-13T19:34:16;1.20;;;1.13;;
2992;SDS011;1506;48.932;9.478;2022-09-13T19:36:45;2.33;;;1.83;;
2992;SDS011;1506;48.932;9.478;2022-09-13T19:39:15;1.50;;;1.40;;
2992;SDS011;1506;48.932;9.478;2022-09-13T19:41:43;1.73;;;1.63;;
2992;SDS011;1506;48.932;9.478;2022-09-13T19:44:11;4.53;;;1.80;;
2992;SDS011;1506;48.932;9.478;2022-09-13T19:46:39;1.70;;;1.60;;
2992;SDS011;1506;48.932;9.478;2022-09-13T19:49:09;8.70;;;2.23;;
2992;SDS011;1506;48.932;9.478;2022-09-13T19:51:39;2.37;;;1.70;;
2992;SDS011;1506;48.932;9.478;2022-09-13T19:54:15;2.70;;;1.77;;
2992;SDS011;1506;48.932;9.478;2022-09-13T19:56:44;2.17;;;2.07;;
2992;SDS011;1506;48.932;9.478;2022-09-13T19:59:12;1.90;;;1.80;;
2992;SDS011;1506;48.932;9.478;2022-09-13T20:01:42;2.03;;;1.93;;
2992;SDS011;1506;48.932;9.478;2022-09-13T20:04:15;1.90;;;1.80;;
2992;SDS011;1506;48.932;9.478;2022-09-13T20:06:48;2.10;;;2.00;;